Time;durP1;ratioP1;P1;durP2;ratioP2;P2;SDS_P1;SDS_P2;PMS_P1;PMS_P2;Temp;Humidity;BMP_temperature;BMP_pressure;BME280_temperature;BME280_humidity;BME280_pressure;Samples;Min_cycle;Max_cycle;Signal;HPM_P1;HPM_P2
2023/01/03 00:01:31;;;;;;;2.50;1.30;;;4.20;99.90;;;;;;5024202;28;20550;-74
2023/01/03 00:03:58;;;;;;;2.92;1.50;;;4.20;99.90;;;;;;5004519;28;20049;-74
2023/01/03 00:06:30;;;;;;;6.18;1.50;;;4.20;99.90;;;;;;5016174;28;20124;-74
2023/01/03 00:08:58;;;;;;;5.85;2.03;;;4.10;99.90;;;;;;5019958;28;20560;-74
2023/01/03 00:14:14;;;;;;;3.47;1.20;;;4.20;99.90;;;;;;5006009;28;20865;-74
2023/01/03 00:16:40;;;;;;;2.83;1.25;;;4.20;99.90;;;;;;4995875;28;20475;-74
2023/01/03 00:19:12;;;;;;;7.63;1.53;;;4.20;99.90;;;;;;4996044;28;20046;-74
2023/01/03 00:21:38;;;;;;;7.60;1.48;;;4.20;99.90;;;;;;5003892;28;20305;-74
2023/01/03 00:24:05;;;;;;;3.97;1.25;;;4.20;99.90;;;;;;5002388;28;20037;-74
2023/01/03 00:26:31;;;;;;;5.88;1.25;;;4.30;99.90;;;;;;5021191;28;20052;-74
2023/01/03 00:28:57;;;;;;;4.88;2.20;;;4.30;99.90;;;;;;5000347;28;20042;-74
2023/01/03 00:31:23;;;;;;;8.68;1.10;;;4.30;99.90;;;;;;5001052;28;20344;-74
2023/01/03 00:33:49;;;;;;;9.67;1.63;;;4.30;99.90;;;;;;5022352;28;20049;-74
2023/01/03 00:36:15;;;;;;;4.45;1.20;;;4.40;99.90;;;;;;5005838;28;20045;-74
2023/01/03 00:38:40;;;;;;;4.00;1.25;;;4.40;99.90;;;;;;5007432;28;20389;-74
2023/01/03 00:41:15;;;;;;;2.90;1.13;;;4.40;99.90;;;;;;5000022;28;20045;-74
2023/01/03 00:43:43;;;;;;;1.70;0.82;;;4.40;99.90;;;;;;5004650;28;20041;-74
2023/01/03 00:46:10;;;;;;;2.28;1.13;;;4.40;99.90;;;;;;4996460;28;20069;-74
2023/01/03 00:48:36;;;;;;;3.53;1.40;;;4.40;99.90;;;;;;5023271;28;20042;-75
2023/01/03 00:51:12;;;;;;;2.00;1.00;;;4.40;99.90;;;;;;5029143;28;20418;-74
2023/01/03 00:53:39;;;;;;;6.20;1.30;;;4.50;99.90;;;;;;5010747;28;20048;-77
2023/01/03 00:56:06;;;;;;;;;;;4.50;99.90;;;;;;5029168;28;20546;-74
2023/01/03 00:58:32;;;;;;;4.03;1.30;;;4.50;99.90;;;;;;5013245;28;20288;-74
2023/01/03 01:01:14;;;;;;;;;;;4.50;99.90;;;;;;5024921;28;20256;-74
2023/01/03 01:03:43;;;;;;;4.78;0.82;;;4.50;99.90;;;;;;5008141;28;19953;-74
2023/01/03 01:06:22;;;;;;;7.45;1.45;;;4.50;99.90;;;;;;5027416;28;20045;-74
2023/01/03 01:08:49;;;;;;;2.55;1.27;;;4.50;99.90;;;;;;5010315;28;20123;-74
2023/01/03 01:11:15;;;;;;;9.00;2.00;;;4.60;99.90;;;;;;5002123;28;20041;-74
2023/01/03 01:13:42;;;;;;;;;;;4.60;99.90;;;;;;5006993;28;20049;-74
2023/01/03 01:16:11;;;;;;;2.60;1.30;;;4.60;99.90;;;;;;5029295;28;19931;-74
2023/01/03 01:18:38;;;;;;;2.60;1.48;;;4.60;99.90;;;;;;4999828;28;20445;-74
2023/01/03 01:21:08;;;;;;;;;;;4.60;99.90;;;;;;5006989;28;20045;-74
2023/01/03 01:23:35;;;;;;;6.80;1.40;;;4.50;99.90;;;;;;5025967;28;19917;-74
2023/01/03 01:26:02;;;;;;;3.38;1.30;;;4.60;99.90;;;;;;4987683;28;20340;-74
2023/01/03 01:28:28;;;;;;;4.00;1.02;;;4.50;99.90;;;;;;5026848;28;20040;-74
2023/01/03 01:30:56;;;;;;;5.67;1.23;;;4.50;99.90;;;;;;5017204;28;20033;-74
2023/01/03 01:33:22;;;;;;;3.15;1.20;;;4.50;99.90;;;;;;5009773;28;20033;-74
2023/01/03 01:35:47;;;;;;;5.37;1.93;;;4.50;99.90;;;;;;5014669;28;20398;-74
2023/01/03 01:38:13;;;;;;;4.37;1.10;;;4.50;99.90;;;;;;5017193;28;20068;-74
2023/01/03 01:40:39;;;;;;;2.47;1.20;;;4.60;99.90;;;;;;5000195;28;20044;-74
2023/01/03 01:46:15;;;;;;;5.78;1.30;;;4.60;99.90;;;;;;5004958;28;20061;-74
2023/01/03 01:48:41;;;;;;;2.10;1.00;;;4.50;99.90;;;;;;5005246;28;20042;-74
2023/01/03 01:51:08;;;;;;;7.03;1.10;;;4.60;99.90;;;;;;4989998;28;20091;-74
2023/01/03 01:53:38;;;;;;;5.95;1.48;;;4.60;99.90;;;;;;5026633;28;20045;-74
2023/01/03 01:56:20;;;;;;;7.60;1.75;;;4.60;99.90;;;;;;5020012;28;20064;-75
2023/01/03 01:58:49;;;;;;;3.05;1.05;;;4.60;99.90;;;;;;5004538;28;20045;-74
2023/01/03 02:01:17;;;;;;;4.50;0.80;;;4.60;99.90;;;;;;5002045;28;20055;-74
2023/01/03 02:03:51;;;;;;;2.33;1.00;;;4.60;99.90;;;;;;4992105;28;20067;-74
2023/01/03 02:06:17;;;;;;;5.18;1.38;;;4.60;99.90;;;;;;5011797;28;20100;-74
2023/01/03 02:08:43;;;;;;;6.53;0.95;;;4.60;99.90;;;;;;5008731;28;20064;-74
2023/01/03 02:11:25;;;;;;;3.70;1.30;;;4.60;99.90;;;;;;5027895;28;20130;-74
2023/01/03 02:14:31;;;;;;;2.75;1.00;;;4.60;99.90;;;;;;5028208;28;20047;-74
2023/01/03 02:17:40;;;;;;;6.00;0.98;;;4.60;99.90;;;;;;5006503;28;20057;-74
2023/01/03 02:20:20;;;;;;;6.15;1.05;;;4.60;99.90;;;;;;5023889;28;20056;-73
2023/01/03 02:23:03;;;;;;;4.88;1.00;;;4.60;99.90;;;;;;5008079;28;20534;-73
2023/01/03 02:25:45;;;;;;;3.38;0.93;;;4.60;99.90;;;;;;5006672;28;20125;-73
2023/01/03 02:29:00;;;;;;;2.33;0.70;;;4.50;99.90;;;;;;5027457;28;20187;-74
2023/01/03 02:31:41;;;;;;;2.78;1.10;;;4.50;99.90;;;;;;4972157;28;20404;-74
2023/01/03 02:34:13;;;;;;;4.70;0.90;;;4.40;99.90;;;;;;5028181;28;20080;-73
2023/01/03 02:37:05;;;;;;;2.28;0.60;;;4.40;99.90;;;;;;5014189;28;20384;-74
2023/01/03 02:39:57;;;;;;;1.58;0.77;;;4.40;99.90;;;;;;5005229;28;20495;-74
2023/01/03 02:42:57;;;;;;;2.67;0.90;;;4.40;99.90;;;;;;5026799;28;20095;-73
2023/01/03 02:45:45;;;;;;;2.25;1.00;;;4.30;99.90;;;;;;5007143;28;20099;-74
2023/01/03 02:48:44;;;;;;;3.97;1.08;;;4.30;99.90;;;;;;5033475;28;20049;-74
2023/01/03 02:51:16;;;;;;;3.03;1.30;;;4.30;99.90;;;;;;5001552;28;20045;-73
2023/01/03 02:53:45;;;;;;;1.77;0.95;;;4.20;99.90;;;;;;5011768;28;20059;-73
2023/01/03 02:56:23;;;;;;;3.35;1.40;;;4.20;99.90;;;;;;5026174;28;20080;-73
2023/01/03 02:58:55;;;;;;;7.00;1.58;;;4.20;99.90;;;;;;5020722;28;20057;-73
2023/01/03 03:01:21;;;;;;;3.20;1.58;;;4.10;99.90;;;;;;5037607;28;20048;-73
2023/01/03 03:03:47;;;;;;;;;;;4.10;99.90;;;;;;5025941;28;20041;-74
2023/01/03 03:06:37;;;;;;;2.22;1.08;;;4.00;99.90;;;;;;4995329;28;19924;-74
2023/01/03 03:09:03;;;;;;;5.82;1.60;;;4.00;99.90;;;;;;5002319;28;20119;-73
2023/01/03 03:14:28;;;;;;;3.63;1.13;;;3.90;99.90;;;;;;5008286;28;20049;-73
2023/01/03 03:16:59;;;;;;;3.88;1.30;;;3.90;99.90;;;;;;5007700;28;20056;-73
2023/01/03 03:25:35;;;;;;;2.65;1.40;;;3.90;99.90;;;;;;5004354;28;20050;-73
2023/01/03 03:30:53;;;;;;;3.60;1.23;;;3.90;99.90;;;;;;5012393;28;20279;-73
2023/01/03 03:33:22;;;;;;;3.42;1.10;;;3.90;99.90;;;;;;5019191;28;20048;-74
2023/01/03 03:36:11;;;;;;;4.47;1.52;;;3.80;99.90;;;;;;5030484;28;20041;-73
2023/01/03 03:38:41;;;;;;;5.20;1.85;;;3.80;99.90;;;;;;5000754;28;20473;-74
2023/01/03 03:44:59;;;;;;;3.38;1.40;;;3.70;99.90;;;;;;5013693;28;20128;-74
2023/01/03 03:47:03;;;;;;;5.93;1.20;;;3.70;99.90;;;;;;5014995;28;20502;-73
2023/01/03 03:49:38;;;;;;;5.03;1.48;;;3.60;99.90;;;;;;5009472;28;20418;-73
2023/01/03 03:52:12;;;;;;;1.33;0.90;;;3.60;99.90;;;;;;5007780;28;20116;-73
2023/01/03 03:54:41;;;;;;;5.90;1.50;;;3.60;99.90;;;;;;4992108;28;20041;-73
2023/01/03 03:57:26;;;;;;;3.72;1.40;;;3.60;99.90;;;;;;5029573;28;20111;-73
2023/01/03 03:59:57;;;;;;;6.90;1.40;;;3.60;99.90;;;;;;5004993;28;20407;-74
2023/01/03 04:02:26;;;;;;;2.95;1.70;;;3.60;99.90;;;;;;5025534;28;20042;-74
2023/01/03 04:04:57;;;;;;;2.88;1.10;;;3.60;99.90;;;;;;5030541;28;20038;-73
2023/01/03 04:07:23;;;;;;;4.75;1.38;;;3.60;99.90;;;;;;5023877;28;20057;-73
2023/01/03 04:09:50;;;;;;;2.47;1.45;;;3.50;99.90;;;;;;5005954;28;20176;-73
2023/01/03 04:12:15;;;;;;;2.25;1.17;;;3.50;99.90;;;;;;5009761;28;20140;-73
2023/01/03 04:14:41;;;;;;;4.33;1.50;;;3.50;99.90;;;;;;5009635;28;20116;-74
2023/01/03 04:17:06;;;;;;;3.57;1.80;;;3.50;99.90;;;;;;5006966;28;20053;-74
2023/01/03 04:19:32;;;;;;;5.53;1.47;;;3.50;99.90;;;;;;5006054;28;20147;-73
2023/01/03 04:21:58;;;;;;;3.00;1.33;;;3.50;99.90;;;;;;5014973;28;20120;-73
2023/01/03 04:24:23;;;;;;;2.67;1.23;;;3.50;99.90;;;;;;5019894;28;20041;-73
2023/01/03 04:26:49;;;;;;;2.00;1.20;;;3.60;99.90;;;;;;5024993;28;20044;-74
2023/01/03 04:29:15;;;;;;;5.60;1.53;;;3.50;99.90;;;;;;5012825;28;20144;-73
2023/01/03 04:31:41;;;;;;;8.50;1.60;;;3.50;99.90;;;;;;5005176;28;20331;-73
2023/01/03 04:34:06;;;;;;;2.93;1.30;;;3.60;99.90;;;;;;5026769;28;20502;-74
2023/01/03 04:36:32;;;;;;;3.30;1.40;;;3.60;99.90;;;;;;5007212;28;20046;-73
2023/01/03 04:38:58;;;;;;;3.90;1.67;;;3.60;99.90;;;;;;4982959;28;20294;-73
2023/01/03 04:41:23;;;;;;;2.37;1.10;;;3.60;99.90;;;;;;5019884;28;20049;-73
2023/01/03 04:44:01;;;;;;;3.57;1.60;;;3.60;99.90;;;;;;5001851;28;20442;-73
2023/01/03 04:46:29;;;;;;;8.43;2.25;;;3.50;99.90;;;;;;5009857;28;20041;-73
2023/01/03 04:48:55;;;;;;;5.72;2.03;;;3.50;99.90;;;;;;5018287;28;20034;-73
2023/01/03 04:51:21;;;;;;;6.67;2.50;;;3.60;99.90;;;;;;5029245;28;20052;-74
2023/01/03 04:53:46;;;;;;;7.15;2.72;;;3.50;99.90;;;;;;4984246;28;20290;-73
2023/01/03 04:56:12;;;;;;;6.07;2.53;;;3.60;99.90;;;;;;5006078;28;20049;-73
2023/01/03 04:58:38;;;;;;;5.30;2.60;;;3.60;99.90;;;;;;4985461;28;20152;-73
2023/01/03 05:01:06;;;;;;;5.60;2.40;;;3.60;99.90;;;;;;5000768;28;20463;-73
2023/01/03 05:03:33;;;;;;;9.70;2.85;;;3.60;99.90;;;;;;5009838;28;20053;-74
2023/01/03 05:06:00;;;;;;;7.20;2.80;;;3.60;99.90;;;;;;5019463;28;20045;-73
2023/01/03 05:08:26;;;;;;;7.75;2.85;;;3.60;99.90;;;;;;5032998;28;20053;-73
2023/01/03 05:10:52;;;;;;;5.80;2.47;;;3.70;99.90;;;;;;5005150;28;20208;-73
2023/01/03 05:13:18;;;;;;;9.05;3.15;;;3.60;99.90;;;;;;5004878;28;20053;-73
2023/01/03 05:15:44;;;;;;;6.43;3.38;;;3.70;99.90;;;;;;5020979;28;20053;-73
2023/01/03 05:18:09;;;;;;;7.27;3.23;;;3.70;99.90;;;;;;5006405;28;20594;-73
2023/01/03 05:26:10;;;;;;;5.75;2.97;;;3.70;99.90;;;;;;5031514;28;20048;-73
2023/01/03 05:28:36;;;;;;;10.75;4.00;;;3.70;99.90;;;;;;5003720;28;20049;-73
2023/01/03 05:31:02;;;;;;;7.95;4.03;;;3.70;99.90;;;;;;5007889;28;20075;-73
2023/01/03 05:33:28;;;;;;;8.47;4.03;;;3.70;99.90;;;;;;5005526;28;20155;-74
2023/01/03 05:35:53;;;;;;;7.13;4.03;;;3.70;99.90;;;;;;5002050;28;20624;-73
2023/01/03 05:38:19;;;;;;;11.40;4.97;;;3.80;99.90;;;;;;5013444;23;20506;-71
2023/01/03 05:40:44;;;;;;;10.67;4.97;;;3.70;99.90;;;;;;5020755;28;20133;-70
2023/01/03 05:43:10;;;;;;;10.50;4.63;;;3.70;99.90;;;;;;5003734;28;20091;-71
2023/01/03 05:45:37;;;;;;;10.70;4.40;;;3.70;99.90;;;;;;5022225;28;20148;-71
2023/01/03 05:48:04;;;;;;;13.23;5.55;;;3.70;99.90;;;;;;5005653;28;20041;-71
2023/01/03 05:50:30;;;;;;;12.10;5.13;;;3.60;99.90;;;;;;5007950;28;20037;-71
2023/01/03 05:52:55;;;;;;;11.90;6.10;;;3.60;99.90;;;;;;5006947;28;20075;-71
2023/01/03 05:55:21;;;;;;;9.13;5.07;;;3.60;99.90;;;;;;5010955;28;20278;-70
2023/01/03 05:57:47;;;;;;;11.70;4.95;;;3.60;99.90;;;;;;5023511;28;20289;-70
2023/01/03 06:00:13;;;;;;;13.77;5.13;;;3.50;99.90;;;;;;5003978;28;20369;-70
2023/01/03 06:02:39;;;;;;;10.82;4.90;;;3.50;99.90;;;;;;5022389;28;20123;-71
2023/01/03 06:05:06;;;;;;;10.20;5.07;;;3.50;99.90;;;;;;5016265;28;20103;-70
2023/01/03 06:07:32;;;;;;;9.27;4.53;;;3.40;99.90;;;;;;5005415;28;20128;-71
2023/01/03 06:09:58;;;;;;;;;;;3.40;99.90;;;;;;5008722;28;20083;-71
2023/01/03 06:12:28;;;;;;;10.80;4.97;;;3.40;99.90;;;;;;5023235;28;20030;-71
2023/01/03 06:14:54;;;;;;;12.27;5.40;;;3.40;99.90;;;;;;5022931;28;20075;-71
2023/01/03 06:20:06;;;;;;;15.63;5.68;;;3.40;99.90;;;;;;4996427;28;20045;-70
2023/01/03 06:22:32;;;;;;;13.90;5.63;;;3.30;99.90;;;;;;4999536;28;20125;-70
2023/01/03 06:24:58;;;;;;;15.43;6.13;;;3.30;99.90;;;;;;5024500;28;20466;-70
2023/01/03 06:27:23;;;;;;;14.90;6.97;;;3.30;99.90;;;;;;5007364;28;20133;-70
2023/01/03 06:29:49;;;;;;;16.30;6.13;;;3.30;99.90;;;;;;5007230;28;20040;-71
2023/01/03 06:32:15;;;;;;;15.13;7.03;;;3.30;99.90;;;;;;5018796;28;20049;-71
2023/01/03 06:34:40;;;;;;;11.68;5.93;;;3.20;99.90;;;;;;5021511;28;20045;-71
2023/01/03 06:37:06;;;;;;;12.93;6.67;;;3.20;99.90;;;;;;5023312;28;20518;-71
2023/01/03 06:39:32;;;;;;;12.48;5.88;;;3.20;99.90;;;;;;5001874;28;20042;-71
2023/01/03 06:42:38;;;;;;;15.50;6.70;;;3.10;99.90;;;;;;5009824;28;20050;-71
2023/01/03 06:53:10;;;;;;;14.13;6.22;;;3.10;99.90;;;;;;5025304;28;20044;-71
2023/01/03 06:53:11;;;;;;;15.07;7.03;;;3.00;99.90;;;;;;5007997;28;20128;-71
2023/01/03 06:55:37;;;;;;;14.35;6.25;;;3.00;99.90;;;;;;5009546;28;20038;-72
2023/01/03 06:58:03;;;;;;;14.52;6.82;;;3.00;99.90;;;;;;5006167;28;20364;-72
2023/01/03 07:00:29;;;;;;;16.10;7.03;;;2.80;99.90;;;;;;5003756;28;20041;-73
2023/01/03 07:02:55;;;;;;;16.67;6.82;;;2.80;99.90;;;;;;5009467;28;20045;-71
2023/01/03 07:05:20;;;;;;;16.17;6.87;;;2.80;99.90;;;;;;5020304;28;20045;-73
2023/01/03 07:07:46;;;;;;;16.63;6.43;;;2.80;99.90;;;;;;5010057;28;20041;-72
2023/01/03 07:10:12;;;;;;;17.23;6.47;;;2.80;99.90;;;;;;5028422;28;20148;-70
2023/01/03 07:15:22;;;;;;;17.20;7.57;;;2.80;99.90;;;;;;5016200;28;20499;-76
2023/01/03 07:17:48;;;;;;;15.38;6.68;;;2.80;99.90;;;;;;5027195;28;20095;-73
2023/01/03 07:20:14;;;;;;;15.90;6.60;;;2.80;99.90;;;;;;5007101;28;22486;-71
2023/01/03 07:22:39;;;;;;;13.83;6.57;;;2.90;99.90;;;;;;5024606;28;20373;-71
2023/01/03 07:25:05;;;;;;;16.10;6.87;;;2.80;99.90;;;;;;4999647;28;20128;-71
2023/01/03 07:27:31;;;;;;;11.97;6.20;;;2.80;99.90;;;;;;5005989;28;20347;-71
2023/01/03 07:29:57;;;;;;;13.33;6.57;;;2.90;99.90;;;;;;5005135;28;20099;-71
2023/01/03 07:32:23;;;;;;;17.30;6.80;;;2.90;99.90;;;;;;5004221;28;20038;-71
2023/01/03 07:34:48;;;;;;;16.63;7.22;;;2.80;99.90;;;;;;5009146;28;20240;-71
2023/01/03 07:37:14;;;;;;;18.67;7.30;;;2.80;99.90;;;;;;5020929;28;20144;-71
2023/01/03 07:39:40;;;;;;;17.40;7.57;;;2.80;99.90;;;;;;5006342;28;20513;-71
2023/01/03 07:44:50;;;;;;;15.52;6.75;;;2.80;99.90;;;;;;5024105;28;20042;-73
2023/01/03 07:47:16;;;;;;;13.90;6.70;;;2.80;99.90;;;;;;4993275;28;20289;-74
2023/01/03 07:49:42;;;;;;;13.83;6.97;;;2.90;99.90;;;;;;5006411;28;20037;-71
2023/01/03 07:52:10;;;;;;;14.13;6.73;;;2.80;99.90;;;;;;5026703;28;20249;-72
2023/01/03 07:54:36;;;;;;;12.52;6.90;;;2.80;99.90;;;;;;5026970;28;20068;-71
2023/01/03 07:57:01;;;;;;;12.33;5.93;;;2.70;99.90;;;;;;5012002;28;20045;-72
2023/01/03 07:59:27;;;;;;;14.97;7.07;;;2.80;99.90;;;;;;5007473;28;20052;-71
2023/01/03 08:01:53;;;;;;;15.13;6.97;;;2.70;99.90;;;;;;5009296;28;20045;-71
2023/01/03 08:04:18;;;;;;;14.03;6.60;;;2.80;99.90;;;;;;5018255;28;20435;-71
2023/01/03 08:06:44;;;;;;;17.23;7.33;;;2.80;99.90;;;;;;5009120;28;20499;-70
2023/01/03 08:14:38;;;;;;;17.23;7.70;;;2.80;99.90;;;;;;5011774;28;20029;-70
2023/01/03 08:17:04;;;;;;;15.53;7.57;;;2.70;99.90;;;;;;5004858;28;20047;-70
2023/01/03 08:19:29;;;;;;;14.63;7.67;;;2.70;99.90;;;;;;5006713;28;20075;-70
2023/01/03 08:21:55;;;;;;;20.53;7.77;;;2.70;99.90;;;;;;5007024;28;20106;-70
2023/01/03 08:24:20;;;;;;;14.70;7.47;;;2.70;99.90;;;;;;5008540;28;20041;-70
2023/01/03 08:26:46;;;;;;;18.23;8.03;;;2.70;99.90;;;;;;5021414;28;20065;-70
2023/01/03 08:29:12;;;;;;;17.63;8.50;;;2.70;99.90;;;;;;4998034;28;20052;-70
2023/01/03 08:31:42;;;;;;;17.93;7.67;;;2.60;99.90;;;;;;5006422;28;20041;-70
2023/01/03 08:34:10;;;;;;;13.45;7.32;;;2.70;99.90;;;;;;5021094;28;20535;-70
2023/01/03 08:36:41;;;;;;;14.65;7.10;;;2.70;99.90;;;;;;5024724;28;20069;-70
2023/01/03 08:39:13;;;;;;;15.00;7.28;;;2.60;99.90;;;;;;5007191;28;20053;-70
2023/01/03 08:41:45;;;;;;;17.33;7.80;;;2.50;99.90;;;;;;5028059;28;20041;-70
2023/01/03 08:44:11;;;;;;;19.40;7.60;;;2.50;99.90;;;;;;5020352;28;20064;-70
2023/01/03 08:46:40;;;;;;;16.90;7.15;;;2.50;99.90;;;;;;5011046;28;20068;-71
2023/01/03 08:49:06;;;;;;;13.50;6.78;;;2.50;99.90;;;;;;5030265;28;20045;-71
2023/01/03 08:51:32;;;;;;;14.27;7.03;;;2.50;99.90;;;;;;5030302;28;20140;-71
2023/01/03 08:53:57;;;;;;;18.35;8.13;;;2.40;99.90;;;;;;4984221;28;20412;-71
2023/01/03 08:56:23;;;;;;;17.60;6.43;;;2.50;99.90;;;;;;5012410;28;20053;-71
2023/01/03 08:58:49;;;;;;;17.60;6.53;;;2.50;99.90;;;;;;5011935;28;20404;-71
2023/01/03 09:01:14;;;;;;;20.37;6.80;;;2.50;99.90;;;;;;4998300;28;20068;-71
2023/01/03 09:03:40;;;;;;;16.23;6.30;;;2.50;99.90;;;;;;5027655;28;20037;-71
2023/01/03 09:06:06;;;;;;;14.07;6.40;;;2.50;99.90;;;;;;5029514;28;20049;-71
2023/01/03 09:08:33;;;;;;;16.80;6.13;;;2.50;99.90;;;;;;5016041;28;20037;-71
2023/01/03 09:11:05;;;;;;;20.55;6.25;;;2.50;99.90;;;;;;5008849;28;20132;-70
2023/01/03 09:13:30;;;;;;;24.20;6.50;;;2.50;99.90;;;;;;5007946;28;20056;-70
2023/01/03 09:16:15;;;;;;;15.93;5.47;;;2.60;99.90;;;;;;5011809;28;20041;-71
2023/01/03 09:18:41;;;;;;;23.13;6.63;;;2.60;99.90;;;;;;5024378;28;20056;-70
2023/01/03 09:21:07;;;;;;;15.53;6.60;;;2.70;99.90;;;;;;5026631;28;20045;-71
2023/01/03 09:23:34;;;;;;;19.77;6.60;;;2.70;99.90;;;;;;4992472;28;20086;-71
2023/01/03 09:26:00;;;;;;;34.13;7.10;;;2.70;99.90;;;;;;5009130;28;20067;-71
2023/01/03 09:28:26;;;;;;;29.17;6.83;;;2.80;99.90;;;;;;5007231;28;20403;-71
2023/01/03 09:30:52;;;;;;;24.90;7.13;;;2.70;99.90;;;;;;5018674;28;20787;-71
2023/01/03 09:33:18;;;;;;;29.50;7.57;;;2.80;99.90;;;;;;5006128;28;20041;-70
2023/01/03 09:35:44;;;;;;;30.07;7.70;;;2.90;99.90;;;;;;5015623;28;20052;-71
2023/01/03 09:38:09;;;;;;;19.50;7.33;;;2.90;99.90;;;;;;5029032;28;20184;-70
2023/01/03 09:40:39;;;;;;;32.30;7.57;;;3.00;99.90;;;;;;5010565;28;20056;-71
2023/01/03 09:43:14;;;;;;;47.58;9.00;;;3.10;99.90;;;;;;5025024;28;20439;-70
2023/01/03 09:45:44;;;;;;;35.45;7.53;;;3.10;99.90;;;;;;5023281;28;20055;-71
2023/01/03 09:48:16;;;;;;;30.77;7.32;;;3.20;99.90;;;;;;5005529;28;20056;-70
2023/01/03 09:50:44;;;;;;;45.45;8.82;;;3.20;99.90;;;;;;5004731;28;20049;-70
2023/01/03 10:05:20;;;;;;;34.90;8.38;;;3.50;99.90;;;;;;4999858;28;20049;-71
2023/01/03 10:08:04;;;;;;;33.20;10.00;;;3.60;99.90;;;;;;5007646;28;20041;-71
2023/01/03 10:10:36;;;;;;;37.78;9.80;;;3.70;99.90;;;;;;5021937;28;20045;-71
2023/01/03 10:13:24;;;;;;;31.02;11.00;;;3.70;99.90;;;;;;5024911;28;20553;-71
2023/01/03 10:16:17;;;;;;;30.90;10.05;;;3.80;99.90;;;;;;5010353;28;20037;-72
2023/01/03 10:18:43;;;;;;;39.42;11.13;;;3.90;99.90;;;;;;5021275;28;20045;-71
2023/01/03 10:21:14;;;;;;;30.70;10.83;;;3.90;99.90;;;;;;5003103;28;20046;-72
2023/01/03 10:23:41;;;;;;;33.60;11.77;;;4.00;99.90;;;;;;5008725;28;20219;-71
2023/01/03 10:26:11;;;;;;;31.67;10.93;;;4.00;99.90;;;;;;5021527;28;20045;-72
2023/01/03 10:28:44;;;;;;;33.92;11.65;;;4.10;99.90;;;;;;5000678;28;20048;-70
2023/01/03 10:31:24;;;;;;;30.35;11.48;;;4.10;99.90;;;;;;5000385;28;20065;-70
2023/01/03 10:33:50;;;;;;;33.78;12.15;;;4.20;99.90;;;;;;5006764;28;20033;-70
2023/01/03 10:36:18;;;;;;;27.70;11.35;;;4.20;99.90;;;;;;5007933;28;20044;-70
2023/01/03 10:38:44;;;;;;;29.00;11.48;;;4.30;99.90;;;;;;5019373;28;20061;-70
2023/01/03 10:41:22;;;;;;;30.10;12.10;;;4.40;99.90;;;;;;5008165;28;20053;-70
2023/01/03 10:43:59;;;;;;;30.20;12.50;;;4.40;99.90;;;;;;5023560;28;20049;-71
2023/01/03 10:46:26;;;;;;;30.60;11.82;;;4.50;99.90;;;;;;5011269;28;20038;-71
2023/01/03 10:48:53;;;;;;;36.08;14.30;;;4.60;99.90;;;;;;5005943;28;20053;-71
2023/01/03 10:51:32;;;;;;;30.88;12.43;;;4.60;99.90;;;;;;5023492;28;20084;-71
2023/01/03 10:54:12;;;;;;;34.53;14.38;;;4.70;99.90;;;;;;5004645;28;20466;-71
2023/01/03 10:56:37;;;;;;;33.00;13.85;;;4.70;99.90;;;;;;4988135;28;20490;-71
2023/01/03 10:59:21;;;;;;;35.55;14.07;;;4.80;99.90;;;;;;5023500;28;20128;-71
2023/01/03 11:02:02;;;;;;;31.83;13.00;;;4.90;99.90;;;;;;5010631;28;20076;-70
2023/01/03 11:04:29;;;;;;;34.58;13.90;;;4.80;99.90;;;;;;4997212;28;20562;-71
2023/01/03 11:07:15;;;;;;;32.63;13.43;;;4.90;99.90;;;;;;5018416;28;20111;-71
2023/01/03 11:09:57;;;;;;;33.83;12.60;;;5.00;99.90;;;;;;4993521;28;20052;-70
2023/01/03 11:12:35;;;;;;;30.70;13.27;;;5.00;99.90;;;;;;4987628;28;20045;-71
2023/01/03 11:15:15;;;;;;;35.30;14.63;;;5.00;99.90;;;;;;5015795;28;20041;-70
2023/01/03 11:17:55;;;;;;;36.83;14.20;;;5.10;99.90;;;;;;5000922;28;20044;-70
2023/01/03 11:20:43;;;;;;;31.13;14.32;;;5.20;99.90;;;;;;5000446;28;20574;-70
2023/01/03 11:23:18;;;;;;;;;;;5.20;99.90;;;;;;5007351;28;20056;-70
2023/01/03 11:26:08;;;;;;;29.63;14.20;;;5.20;99.90;;;;;;5023977;28;19933;-70
2023/01/03 11:28:54;;;;;;;36.05;14.43;;;5.20;99.90;;;;;;4997381;28;20386;-70
2023/01/03 11:31:46;;;;;;;32.33;13.85;;;5.30;99.90;;;;;;4998767;28;20330;-70
2023/01/03 11:34:47;;;;;;;34.28;13.02;;;5.30;99.90;;;;;;5018941;28;20076;-70
2023/01/03 11:37:20;;;;;;;35.78;14.68;;;5.40;99.90;;;;;;4940815;29;20156;-70
2023/01/03 11:42:45;;;;;;;30.27;13.50;;;5.40;99.90;;;;;;4997203;28;20046;-69
2023/01/03 11:45:28;;;;;;;39.53;14.90;;;5.40;99.90;;;;;;4994226;28;20438;-69
2023/01/03 11:48:17;;;;;;;36.85;14.77;;;5.40;99.90;;;;;;4990606;28;20416;-69
2023/01/03 11:50:58;;;;;;;32.20;14.18;;;5.50;99.90;;;;;;4999727;28;20048;-70
2023/01/03 11:53:36;;;;;;;34.67;15.27;;;5.50;99.90;;;;;;5000973;28;20507;-69
2023/01/03 11:56:26;;;;;;;28.13;12.18;;;5.60;99.90;;;;;;4996365;28;20046;-70
2023/01/03 11:59:21;;;;;;;38.58;15.10;;;5.60;99.90;;;;;;4997416;28;20064;-70
2023/01/03 12:02:11;;;;;;;32.42;14.13;;;5.60;99.90;;;;;;4998331;28;20048;-70
2023/01/03 12:04:56;;;;;;;34.63;13.82;;;5.60;99.90;;;;;;4990549;28;20046;-69
2023/01/03 12:07:37;;;;;;;36.88;13.95;;;5.70;99.90;;;;;;4995863;28;20077;-70
2023/01/03 12:10:14;;;;;;;31.85;14.55;;;5.70;99.90;;;;;;4997305;28;20116;-70
2023/01/03 12:13:16;;;;;;;33.28;13.38;;;5.80;99.90;;;;;;4991943;28;20081;-69
2023/01/03 12:15:50;;;;;;;30.55;14.50;;;5.80;99.90;;;;;;4989500;28;20046;-69
2023/01/03 12:18:44;;;;;;;28.10;12.30;;;5.90;99.90;;;;;;4994067;28;20053;-70
2023/01/03 12:21:17;;;;;;;27.08;12.73;;;6.00;99.90;;;;;;4998638;28;20071;-70
2023/01/03 12:23:49;;;;;;;26.65;12.30;;;6.00;99.90;;;;;;4990999;28;20061;-69
2023/01/03 12:26:16;;;;;;;29.10;12.88;;;6.00;99.90;;;;;;4993950;28;20057;-69
2023/01/03 12:28:42;;;;;;;;;;;6.10;99.90;;;;;;4994184;28;20096;-69
2023/01/03 12:31:15;;;;;;;24.73;10.50;;;6.10;99.90;;;;;;4997316;28;19925;-67
2023/01/03 12:34:31;;;;;;;28.73;12.70;;;6.10;99.90;;;;;;4973480;28;20049;-69
2023/01/03 12:37:04;;;;;;;25.13;11.48;;;6.20;99.90;;;;;;4988931;28;20421;-69
2023/01/03 12:39:56;;;;;;;27.13;11.68;;;6.20;99.90;;;;;;4992915;28;20492;-69
2023/01/03 12:42:36;;;;;;;24.42;10.65;;;6.30;99.90;;;;;;4988312;28;20042;-69
2023/01/03 12:45:08;;;;;;;26.77;11.23;;;6.30;99.90;;;;;;4992887;28;20046;-69
2023/01/03 12:47:45;;;;;;;28.92;11.00;;;6.30;99.90;;;;;;4999009;28;20115;-69
2023/01/03 12:50:14;;;;;;;;;;;6.40;99.90;;;;;;5003396;28;20054;-69
2023/01/03 12:52:41;;;;;;;22.05;9.90;;;6.40;99.90;;;;;;4995611;28;20429;-69
2023/01/03 12:55:18;;;;;;;25.25;10.60;;;6.40;99.90;;;;;;5001951;28;20124;-69
2023/01/03 12:57:44;;;;;;;21.13;9.35;;;6.50;99.90;;;;;;4988282;28;20040;-69
2023/01/03 13:00:47;;;;;;;21.90;9.98;;;6.50;99.90;;;;;;4989476;28;20309;-70
2023/01/03 13:03:21;;;;;;;23.30;9.52;;;6.50;99.90;;;;;;4990431;28;20046;-69
2023/01/03 13:06:01;;;;;;;19.98;9.50;;;6.50;99.90;;;;;;5001273;28;20072;-69
2023/01/03 13:08:48;;;;;;;18.08;8.88;;;6.60;99.90;;;;;;4995025;28;20050;-69
2023/01/03 13:11:24;;;;;;;20.88;8.82;;;6.60;99.90;;;;;;5000578;28;20142;-69
2023/01/03 13:13:56;;;;;;;23.65;9.38;;;6.70;99.90;;;;;;4995090;28;20253;-69
2023/01/03 13:16:33;;;;;;;18.90;7.93;;;6.70;99.90;;;;;;4998341;28;20077;-70
2023/01/03 13:19:17;;;;;;;;;;;6.70;99.90;;;;;;4992866;28;20523;-69
2023/01/03 13:21:52;;;;;;;18.27;8.13;;;6.70;99.90;;;;;;4997162;28;19925;-69
2023/01/03 13:24:46;;;;;;;21.27;9.00;;;6.80;99.90;;;;;;5004588;28;20045;-69
2023/01/03 13:27:18;;;;;;;20.52;9.73;;;6.80;99.90;;;;;;5006986;28;20064;-71
2023/01/03 13:29:47;;;;;;;19.58;8.77;;;6.80;99.90;;;;;;5012259;28;20471;-76
2023/01/03 13:32:21;;;;;;;23.23;9.70;;;6.80;99.90;;;;;;5005007;28;20403;-72
2023/01/03 13:34:52;;;;;;;24.45;8.95;;;6.80;99.90;;;;;;5001208;28;20042;-72
2023/01/03 13:37:21;;;;;;;20.90;9.55;;;6.80;99.90;;;;;;4998431;28;20067;-72
2023/01/03 13:39:49;;;;;;;21.77;9.18;;;6.80;99.90;;;;;;5002460;28;20052;-73
2023/01/03 13:42:41;;;;;;;24.55;10.50;;;6.90;99.90;;;;;;4987782;28;20044;-72
2023/01/03 13:45:13;;;;;;;19.75;9.07;;;6.90;99.90;;;;;;4996190;28;20049;-73
2023/01/03 13:47:53;;;;;;;21.10;8.57;;;6.90;99.90;;;;;;5005971;28;20053;-73
2023/01/03 13:50:28;;;;;;;19.13;9.05;;;6.90;99.90;;;;;;4997156;28;20089;-75
2023/01/03 13:53:24;;;;;;;22.23;8.95;;;7.00;99.90;;;;;;4999050;28;20033;-73
2023/01/03 13:56:13;;;;;;;24.20;8.85;;;7.00;99.90;;;;;;5022691;28;20080;-74
2023/01/03 13:58:45;;;;;;;24.90;10.05;;;7.00;99.90;;;;;;5001734;28;20399;-72
2023/01/03 14:01:23;;;;;;;26.90;9.85;;;7.00;99.90;;;;;;4995871;28;20176;-72
2023/01/03 14:04:14;;;;;;;22.52;9.65;;;7.00;99.90;;;;;;5015380;28;20092;-70
2023/01/03 14:06:51;;;;;;;24.63;10.20;;;7.00;99.90;;;;;;5006906;28;20281;-70
2023/01/03 14:09:32;;;;;;;25.90;10.07;;;7.10;99.90;;;;;;5006987;28;20034;-70
2023/01/03 14:12:12;;;;;;;22.73;9.93;;;7.10;99.90;;;;;;5003599;28;20128;-69
2023/01/03 14:14:40;;;;;;;22.60;9.32;;;7.10;99.90;;;;;;5002807;28;20072;-70
2023/01/03 14:17:16;;;;;;;22.10;9.18;;;7.10;99.90;;;;;;5004471;28;20341;-70